sensor_id;sensor_type;location;lat;lon;timestamp;pressure;altitude;pressure_sealevel;temperature;humidity
39613;BME280;25303;48.896;13.342;2022-09-14T00:00:38;92314.72;;;15.61;66.91
39613;BME280;25303;48.896;13.342;2022-09-14T00:03:23;92311.13;;;15.62;67.38
39613;BME280;25303;48.896;13.342;2022-09-14T00:06:07;92307.13;;;15.59;67.19
39613;BME280;25303;48.896;13.342;2022-09-14T00:08:51;92297.94;;;15.57;67.05
39613;BME280;25303;48.896;13.342;2022-09-14T00:11:36;92303.34;;;15.55;67.11
39613;BME280;25303;48.896;13.342;2022-09-14T00:14:19;92296.75;;;15.53;67.43
39613;BME280;25303;48.896;13.342;2022-09-14T00:17:02;92294.53;;;15.49;67.77
39613;BME280;25303;48.896;13.342;2022-09-14T00:19:45;92292.94;;;15.48;67.49
39613;BME280;25303;48.896;13.342;2022-09-14T00:22:28;92295.53;;;15.48;67.62
39613;BME280;25303;48.896;13.342;2022-09-14T00:25:11;92298.56;;;15.52;67.71
39613;BME280;25303;48.896;13.342;2022-09-14T00:27:56;92302.31;;;15.56;67.94
39613;BME280;25303;48.896;13.342;2022-09-14T00:30:40;92290.78;;;15.59;67.72
39613;BME280;25303;48.896;13.342;2022-09-14T00:33:23;92289.78;;;15.60;67.63
39613;BME280;25303;48.896;13.342;2022-09-14T00:36:08;92283.16;;;15.57;67.53
39613;BME280;25303;48.896;13.342;2022-09-14T00:38:52;92281.75;;;15.68;67.02
39613;BME280;25303;48.896;13.342;2022-09-14T00:41:39;92271.97;;;15.70;66.99
39613;BME280;25303;48.896;13.342;2022-09-14T00:44:59;92259.22;;;15.69;67.25
39613;BME280;25303;48.896;13.342;2022-09-14T00:47:43;92265.41;;;15.68;67.23
39613;BME280;25303;48.896;13.342;2022-09-14T00:50:26;92258.00;;;15.71;67.12
39613;BME280;25303;48.896;13.342;2022-09-14T00:53:09;92262.59;;;15.76;66.90
39613;BME280;25303;48.896;13.342;2022-09-14T00:55:52;92261.41;;;15.78;66.77
39613;BME280;25303;48.896;13.342;2022-09-14T00:58:35;92260.97;;;15.82;66.76
39613;BME280;25303;48.896;13.342;2022-09-14T01:01:20;92264.81;;;15.86;66.87
39613;BME280;25303;48.896;13.342;2022-09-14T01:04:03;92266.22;;;15.88;66.74
39613;BME280;25303;48.896;13.342;2022-09-14T01:06:52;92268.59;;;15.90;66.63
39613;BME280;25303;48.896;13.342;2022-09-14T01:09:43;92262.41;;;15.91;66.63
39613;BME280;25303;48.896;13.342;2022-09-14T01:12:34;92258.59;;;15.93;66.83
39613;BME280;25303;48.896;13.342;2022-09-14T01:15:27;92261.59;;;15.90;66.50
39613;BME280;25303;48.896;13.342;2022-09-14T01:18:18;92242.41;;;15.91;66.46
39613;BME280;25303;48.896;13.342;2022-09-14T01:21:06;92232.63;;;15.93;66.57
39613;BME280;25303;48.896;13.342;2022-09-14T01:23:57;92225.06;;;15.92;66.26
39613;BME280;25303;48.896;13.342;2022-09-14T01:27:09;92230.03;;;15.93;66.17
39613;BME280;25303;48.896;13.342;2022-09-14T01:30:04;92254.81;;;15.96;66.57
39613;BME280;25303;48.896;13.342;2022-09-14T01:32:51;92285.97;;;15.96;66.84
39613;BME280;25303;48.896;13.342;2022-09-14T01:35:37;92278.34;;;15.94;66.48
39613;BME280;25303;48.896;13.342;2022-09-14T01:38:28;92248.81;;;15.89;67.47
39613;BME280;25303;48.896;13.342;2022-09-14T01:41:15;92237.44;;;15.90;67.37
39613;BME280;25303;48.896;13.342;2022-09-14T01:44:05;92237.06;;;15.86;67.98
39613;BME280;25303;48.896;13.342;2022-09-14T01:46:52;92232.44;;;15.82;68.34
39613;BME280;25303;48.896;13.342;2022-09-14T01:49:40;92214.88;;;15.77;68.38
39613;BME280;25303;48.896;13.342;2022-09-14T01:52:29;92226.47;;;15.74;68.81
39613;BME280;25303;48.896;13.342;2022-09-14T01:55:16;92233.28;;;15.69;69.18
39613;BME280;25303;48.896;13.342;2022-09-14T01:58:04;92235.66;;;15.63;69.40
39613;BME280;25303;48.896;13.342;2022-09-14T02:00:52;92234.09;;;15.56;69.97
39613;BME280;25303;48.896;13.342;2022-09-14T02:03:42;92216.13;;;15.47;70.59
39613;BME280;25303;48.896;13.342;2022-09-14T02:06:30;92223.91;;;15.47;70.30
39613;BME280;25303;48.896;13.342;2022-09-14T02:09:18;92218.56;;;15.42;70.38
39613;BME280;25303;48.896;13.342;2022-09-14T02:12:07;92211.38;;;15.44;71.13
39613;BME280;25303;48.896;13.342;2022-09-14T02:14:52;92206.78;;;15.46;71.18
39613;BME280;25303;48.896;13.342;2022-09-14T02:17:37;92207.34;;;15.48;70.67
39613;BME280;25303;48.896;13.342;2022-09-14T02:20:21;92210.16;;;15.47;71.37
39613;BME280;25303;48.896;13.342;2022-09-14T02:23:05;92205.75;;;15.41;71.05
39613;BME280;25303;48.896;13.342;2022-09-14T02:25:48;92202.38;;;15.40;70.96
39613;BME280;25303;48.896;13.342;2022-09-14T02:28:34;92194.59;;;15.40;71.20
39613;BME280;25303;48.896;13.342;2022-09-14T02:31:25;92185.63;;;15.36;71.33
39613;BME280;25303;48.896;13.342;2022-09-14T02:34:20;92194.63;;;15.33;71.45
39613;BME280;25303;48.896;13.342;2022-09-14T02:37:09;92183.88;;;15.30;72.11
39613;BME280;25303;48.896;13.342;2022-09-14T02:40:00;92184.44;;;15.25;72.03
39613;BME280;25303;48.896;13.342;2022-09-14T02:42:54;92180.25;;;15.24;72.06
39613;BME280;25303;48.896;13.342;2022-09-14T02:45:46;92174.06;;;15.25;72.46
39613;BME280;25303;48.896;13.342;2022-09-14T02:48:39;92167.50;;;15.23;72.40
39613;BME280;25303;48.896;13.342;2022-09-14T02:51:28;92173.28;;;15.25;72.63
39613;BME280;25303;48.896;13.342;2022-09-14T02:54:15;92174.88;;;15.26;72.21
39613;BME280;25303;48.896;13.342;2022-09-14T02:57:00;92177.25;;;15.27;72.15
39613;BME280;25303;48.896;13.342;2022-09-14T02:59:43;92177.88;;;15.29;72.10
39613;BME280;25303;48.896;13.342;2022-09-14T03:02:26;92174.47;;;15.29;72.03
39613;BME280;25303;48.896;13.342;2022-09-14T03:05:09;92172.88;;;15.28;72.07
39613;BME280;25303;48.896;13.342;2022-09-14T03:07:53;92169.47;;;15.27;72.08
39613;BME280;25303;48.896;13.342;2022-09-14T03:10:37;92166.88;;;15.27;72.03
39613;BME280;25303;48.896;13.342;2022-09-14T03:13:20;92172.28;;;15.26;72.16
39613;BME280;25303;48.896;13.342;2022-09-14T03:16:04;92165.28;;;15.26;72.41
39613;BME280;25303;48.896;13.342;2022-09-14T03:18:48;92155.91;;;15.25;72.33
39613;BME280;25303;48.896;13.342;2022-09-14T03:21:31;92156.53;;;15.27;72.29
39613;BME280;25303;48.896;13.342;2022-09-14T03:24:16;92150.94;;;15.30;72.86
39613;BME280;25303;48.896;13.342;2022-09-14T03:26:59;92152.53;;;15.31;72.67
39613;BME280;25303;48.896;13.342;2022-09-14T03:29:42;92157.50;;;15.33;72.69
39613;BME280;25303;48.896;13.342;2022-09-14T03:32:25;92149.53;;;15.34;72.81
39613;BME280;25303;48.896;13.342;2022-09-14T03:35:08;92149.13;;;15.38;72.70
39613;BME280;25303;48.896;13.342;2022-09-14T03:37:51;92146.31;;;15.39;72.66
39613;BME280;25303;48.896;13.342;2022-09-14T03:40:35;92145.72;;;15.44;72.41
39613;BME280;25303;48.896;13.342;2022-09-14T03:43:18;92134.94;;;15.47;72.31
39613;BME280;25303;48.896;13.342;2022-09-14T03:46:06;92137.13;;;15.50;72.11
39613;BME280;25303;48.896;13.342;2022-09-14T03:48:49;92138.31;;;15.54;71.43
39613;BME280;25303;48.896;13.342;2022-09-14T03:51:32;92138.69;;;15.58;71.11
39613;BME280;25303;48.896;13.342;2022-09-14T03:54:16;92133.50;;;15.58;71.28
39613;BME280;25303;48.896;13.342;2022-09-14T03:57:00;92126.50;;;15.58;71.68
39613;BME280;25303;48.896;13.342;2022-09-14T03:59:43;92126.34;;;15.53;71.77
39613;BME280;25303;48.896;13.342;2022-09-14T04:02:27;92122.56;;;15.49;72.03
39613;BME280;25303;48.896;13.342;2022-09-14T04:05:10;92124.56;;;15.47;72.01
39613;BME280;25303;48.896;13.342;2022-09-14T04:07:53;92123.78;;;15.46;72.09
39613;BME280;25303;48.896;13.342;2022-09-14T04:10:37;92126.78;;;15.43;72.06
39613;BME280;25303;48.896;13.342;2022-09-14T04:13:23;92125.38;;;15.41;72.03
39613;BME280;25303;48.896;13.342;2022-09-14T04:16:06;92118.41;;;15.41;71.99
39613;BME280;25303;48.896;13.342;2022-09-14T04:18:49;92121.38;;;15.45;71.93
39613;BME280;25303;48.896;13.342;2022-09-14T04:21:32;92128.38;;;15.44;72.06
39613;BME280;25303;48.896;13.342;2022-09-14T04:24:15;92122.38;;;15.44;71.55
39613;BME280;25303;48.896;13.342;2022-09-14T04:26:59;92128.38;;;15.44;71.60
39613;BME280;25303;48.896;13.342;2022-09-14T04:29:43;92124.78;;;15.45;71.81
39613;BME280;25303;48.896;13.342;2022-09-14T04:32:26;92117.00;;;15.45;72.09
39613;BME280;25303;48.896;13.342;2022-09-14T04:35:15;92122.19;;;15.45;72.00
39613;BME280;25303;48.896;13.342;2022-09-14T04:37:58;92129.16;;;15.45;72.46
39613;BME280;25303;48.896;13.342;2022-09-14T04:40:40;92135.16;;;15.45;72.26
39613;BME280;25303;48.896;13.342;2022-09-14T04:43:24;92135.72;;;15.47;72.21
39613;BME280;25303;48.896;13.342;2022-09-14T04:46:12;92146.50;;;15.51;72.27
39613;BME280;25303;48.896;13.342;2022-09-14T04:48:55;92152.69;;;15.50;72.16
39613;BME280;25303;48.896;13.342;2022-09-14T04:51:38;92153.88;;;15.47;72.49
39613;BME280;25303;48.896;13.342;2022-09-14T04:54:21;92148.69;;;15.41;72.75
39613;BME280;25303;48.896;13.342;2022-09-14T04:57:04;92164.09;;;15.36;73.30
39613;BME280;25303;48.896;13.342;2022-09-14T04:59:47;92163.50;;;15.33;73.81
39613;BME280;25303;48.896;13.342;2022-09-14T05:02:31;92165.50;;;15.25;74.02
39613;BME280;25303;48.896;13.342;2022-09-14T05:05:15;92157.16;;;15.16;74.49
39613;BME280;25303;48.896;13.342;2022-09-14T05:07:57;92150.38;;;15.08;75.20
39613;BME280;25303;48.896;13.342;2022-09-14T05:10:40;92146.97;;;15.01;75.59
39613;BME280;25303;48.896;13.342;2022-09-14T05:13:24;92143.00;;;14.92;75.58
39613;BME280;25303;48.896;13.342;2022-09-14T05:16:09;92139.59;;;14.84;76.16
39613;BME280;25303;48.896;13.342;2022-09-14T05:18:54;92123.28;;;14.77;77.15
39613;BME280;25303;48.896;13.342;2022-09-14T05:21:37;92114.91;;;14.68;77.20
39613;BME280;25303;48.896;13.342;2022-09-14T05:24:20;92112.69;;;14.58;77.78
39613;BME280;25303;48.896;13.342;2022-09-14T05:27:03;92115.06;;;14.53;78.17
39613;BME280;25303;48.896;13.342;2022-09-14T05:29:46;92121.25;;;14.52;78.27
39613;BME280;25303;48.896;13.342;2022-09-14T05:32:29;92123.06;;;14.52;78.30
39613;BME280;25303;48.896;13.342;2022-09-14T05:35:14;92140.38;;;14.51;78.86
39613;BME280;25303;48.896;13.342;2022-09-14T05:37:57;92131.81;;;14.51;78.83
39613;BME280;25303;48.896;13.342;2022-09-14T05:40:40;92140.38;;;14.51;78.90
39613;BME280;25303;48.896;13.342;2022-09-14T05:43:23;92153.13;;;14.53;78.90
39613;BME280;25303;48.896;13.342;2022-09-14T05:46:09;92122.63;;;14.48;79.66
39613;BME280;25303;48.896;13.342;2022-09-14T05:48:53;92115.47;;;14.50;79.63
39613;BME280;25303;48.896;13.342;2022-09-14T05:51:37;92122.63;;;14.48;80.15
39613;BME280;25303;48.896;13.342;2022-09-14T05:54:20;92121.25;;;14.46;80.27
39613;BME280;25303;48.896;13.342;2022-09-14T05:57:03;92111.69;;;14.46;80.08
39613;BME280;25303;48.896;13.342;2022-09-14T05:59:46;92108.28;;;14.46;80.18
39613;BME280;25303;48.896;13.342;2022-09-14T06:02:29;92100.53;;;14.46;80.26
39613;BME280;25303;48.896;13.342;2022-09-14T06:05:13;92088.56;;;14.44;80.75
39613;BME280;25303;48.896;13.342;2022-09-14T06:07:57;92092.16;;;14.43;81.24
39613;BME280;25303;48.896;13.342;2022-09-14T06:10:40;92097.75;;;14.47;81.70
39613;BME280;25303;48.896;13.342;2022-09-14T06:13:23;92092.97;;;14.51;82.33
39613;BME280;25303;48.896;13.342;2022-09-14T06:16:08;92066.25;;;14.50;83.19
39613;BME280;25303;48.896;13.342;2022-09-14T06:18:53;92050.72;;;14.50;83.20
39613;BME280;25303;48.896;13.342;2022-09-14T06:21:36;92055.09;;;14.56;83.08
39613;BME280;25303;48.896;13.342;2022-09-14T06:24:31;92055.69;;;14.65;83.17
39613;BME280;25303;48.896;13.342;2022-09-14T06:27:29;92058.72;;;14.69;82.81
39613;BME280;25303;48.896;13.342;2022-09-14T06:30:19;92052.91;;;14.73;82.93
39613;BME280;25303;48.896;13.342;2022-09-14T06:33:03;92066.28;;;14.84;82.53
39613;BME280;25303;48.896;13.342;2022-09-14T06:35:54;92076.81;;;14.96;82.82
39613;BME280;25303;48.896;13.342;2022-09-14T06:38:37;92061.84;;;15.04;82.33
39613;BME280;25303;48.896;13.342;2022-09-14T06:41:24;92067.41;;;15.15;82.02
39613;BME280;25303;48.896;13.342;2022-09-14T06:44:09;92091.31;;;15.24;81.38
39613;BME280;25303;48.896;13.342;2022-09-14T06:46:52;92075.13;;;15.28;81.69
39613;BME280;25303;48.896;13.342;2022-09-14T06:49:35;92066.59;;;15.21;82.89
39613;BME280;25303;48.896;13.342;2022-09-14T06:52:18;92068.00;;;15.17;83.22
39613;BME280;25303;48.896;13.342;2022-09-14T06:55:01;92076.53;;;15.24;82.45
39613;BME280;25303;48.896;13.342;2022-09-14T06:57:47;92069.75;;;15.23;82.52
39613;BME280;25303;48.896;13.342;2022-09-14T07:00:30;92057.22;;;15.20;83.20
39613;BME280;25303;48.896;13.342;2022-09-14T07:03:13;92051.19;;;15.26;83.30
39613;BME280;25303;48.896;13.342;2022-09-14T07:06:01;92051.81;;;15.28;83.29
39613;BME280;25303;48.896;13.342;2022-09-14T07:08:44;92058.16;;;15.39;82.28
39613;BME280;25303;48.896;13.342;2022-09-14T07:11:27;92065.69;;;15.47;82.35
39613;BME280;25303;48.896;13.342;2022-09-14T07:14:12;92057.53;;;15.44;82.90
39613;BME280;25303;48.896;13.342;2022-09-14T07:16:55;92049.59;;;15.39;83.05
39613;BME280;25303;48.896;13.342;2022-09-14T07:19:38;92054.75;;;15.45;82.50
39613;BME280;25303;48.896;13.342;2022-09-14T07:22:21;92048.56;;;15.46;82.35
39613;BME280;25303;48.896;13.342;2022-09-14T07:25:05;92042.94;;;15.49;82.34
39613;BME280;25303;48.896;13.342;2022-09-14T07:27:48;92046.53;;;15.48;82.28
39613;BME280;25303;48.896;13.342;2022-09-14T07:30:35;92047.72;;;15.53;82.35
39613;BME280;25303;48.896;13.342;2022-09-14T07:33:18;92060.88;;;15.58;82.02
39613;BME280;25303;48.896;13.342;2022-09-14T07:36:05;92061.25;;;15.61;82.34
39613;BME280;25303;48.896;13.342;2022-09-14T07:38:48;92078.00;;;15.65;81.98
39613;BME280;25303;48.896;13.342;2022-09-14T07:41:34;92086.75;;;15.71;81.89
39613;BME280;25303;48.896;13.342;2022-09-14T07:44:17;92069.38;;;15.78;82.16
39613;BME280;25303;48.896;13.342;2022-09-14T07:47:01;92066.38;;;15.75;82.42
39613;BME280;25303;48.896;13.342;2022-09-14T07:49:45;92057.81;;;15.74;82.21
39613;BME280;25303;48.896;13.342;2022-09-14T07:52:28;92072.38;;;15.75;81.97
39613;BME280;25303;48.896;13.342;2022-09-14T07:55:16;92080.94;;;15.76;82.07
39613;BME280;25303;48.896;13.342;2022-09-14T07:57:59;92080.53;;;15.79;82.22
39613;BME280;25303;48.896;13.342;2022-09-14T08:00:42;92084.94;;;15.78;82.02
39613;BME280;25303;48.896;13.342;2022-09-14T08:03:28;92109.44;;;15.83;82.01
39613;BME280;25303;48.896;13.342;2022-09-14T08:06:13;92074.34;;;15.80;82.39
39613;BME280;25303;48.896;13.342;2022-09-14T08:08:57;92075.53;;;15.84;82.72
39613;BME280;25303;48.896;13.342;2022-09-14T08:11:40;92056.75;;;15.89;82.54
39613;BME280;25303;48.896;13.342;2022-09-14T08:14:23;92060.31;;;15.94;81.93
39613;BME280;25303;48.896;13.342;2022-09-14T08:17:06;92069.06;;;16.00;81.98
39613;BME280;25303;48.896;13.342;2022-09-14T08:19:52;92062.88;;;16.01;81.49
39613;BME280;25303;48.896;13.342;2022-09-14T08:22:36;92070.66;;;16.01;81.31
39613;BME280;25303;48.896;13.342;2022-09-14T08:25:19;92071.66;;;16.00;81.70
39613;BME280;25303;48.896;13.342;2022-09-14T08:28:02;92067.47;;;15.99;81.07
39613;BME280;25303;48.896;13.342;2022-09-14T08:30:46;92065.31;;;15.89;81.44
39613;BME280;25303;48.896;13.342;2022-09-14T08:33:30;92051.34;;;15.90;81.77
39613;BME280;25303;48.896;13.342;2022-09-14T08:36:16;92064.13;;;15.92;82.07
39613;BME280;25303;48.896;13.342;2022-09-14T08:39:00;92077.25;;;15.97;81.65
39613;BME280;25303;48.896;13.342;2022-09-14T08:41:49;92079.25;;;16.02;81.76
39613;BME280;25303;48.896;13.342;2022-09-14T08:44:36;92083.81;;;16.06;81.34
39613;BME280;25303;48.896;13.342;2022-09-14T08:47:25;92091.19;;;16.09;80.93
39613;BME280;25303;48.896;13.342;2022-09-14T08:50:12;92077.78;;;16.13;80.73
39613;BME280;25303;48.896;13.342;2022-09-14T08:52:59;92073.59;;;16.12;80.71
39613;BME280;25303;48.896;13.342;2022-09-14T08:55:45;92091.78;;;16.12;80.64
39613;BME280;25303;48.896;13.342;2022-09-14T08:58:37;92080.94;;;16.15;80.59
39613;BME280;25303;48.896;13.342;2022-09-14T09:01:39;92070.56;;;16.15;79.61
39613;BME280;25303;48.896;13.342;2022-09-14T09:04:32;92073.34;;;16.20;79.21
39613;BME280;25303;48.896;13.342;2022-09-14T09:07:22;92082.72;;;16.21;79.01
39613;BME280;25303;48.896;13.342;2022-09-14T09:10:11;92060.94;;;16.22;79.48
39613;BME280;25303;48.896;13.342;2022-09-14T09:12:57;92061.53;;;16.24;79.33
39613;BME280;25303;48.896;13.342;2022-09-14T09:15:43;92068.31;;;16.25;79.69
39613;BME280;25303;48.896;13.342;2022-09-14T09:18:35;92062.94;;;16.20;80.05
39613;BME280;25303;48.896;13.342;2022-09-14T09:21:21;92071.34;;;16.22;80.20
39613;BME280;25303;48.896;13.342;2022-09-14T09:24:23;92072.56;;;16.19;80.17
39613;BME280;25303;48.896;13.342;2022-09-14T09:27:13;92070.97;;;16.18;80.38
39613;BME280;25303;48.896;13.342;2022-09-14T09:29:56;92073.16;;;16.21;80.42
39613;BME280;25303;48.896;13.342;2022-09-14T09:32:42;92071.75;;;16.19;80.15
39613;BME280;25303;48.896;13.342;2022-09-14T09:35:48;92078.53;;;16.20;80.14
39613;BME280;25303;48.896;13.342;2022-09-14T09:38:35;92074.94;;;16.21;80.03
39613;BME280;25303;48.896;13.342;2022-09-14T09:41:20;92063.53;;;16.22;79.66
39613;BME280;25303;48.896;13.342;2022-09-14T09:44:07;92079.91;;;16.22;79.66
39613;BME280;25303;48.896;13.342;2022-09-14T09:46:54;92090.09;;;16.24;79.75
39613;BME280;25303;48.896;13.342;2022-09-14T09:49:38;92089.69;;;16.27;79.83
39613;BME280;25303;48.896;13.342;2022-09-14T09:52:21;92102.22;;;16.30;79.97
39613;BME280;25303;48.896;13.342;2022-09-14T09:55:05;92089.84;;;16.32;79.81
39613;BME280;25303;48.896;13.342;2022-09-14T09:57:48;92086.81;;;16.35;79.62
39613;BME280;25303;48.896;13.342;2022-09-14T10:00:33;92096.19;;;16.36;79.63
39613;BME280;25303;48.896;13.342;2022-09-14T10:03:29;92094.78;;;16.40;79.44
39613;BME280;25303;48.896;13.342;2022-09-14T10:06:12;92088.78;;;16.40;79.63
39613;BME280;25303;48.896;13.342;2022-09-14T10:08:56;92094.56;;;16.42;79.36
39613;BME280;25303;48.896;13.342;2022-09-14T10:11:40;92093.94;;;16.47;79.61
39613;BME280;25303;48.896;13.342;2022-09-14T10:14:27;92090.50;;;16.53;79.63
39613;BME280;25303;48.896;13.342;2022-09-14T10:17:17;92097.22;;;16.61;79.65
39613;BME280;25303;48.896;13.342;2022-09-14T10:20:01;92093.78;;;16.67;79.56
39613;BME280;25303;48.896;13.342;2022-09-14T10:22:44;92097.69;;;16.76;79.47
39613;BME280;25303;48.896;13.342;2022-09-14T10:25:27;92101.84;;;16.84;79.66
39613;BME280;25303;48.896;13.342;2022-09-14T10:28:20;92094.03;;;16.84;79.51
39613;BME280;25303;48.896;13.342;2022-09-14T10:31:07;92090.00;;;16.88;79.60
39613;BME280;25303;48.896;13.342;2022-09-14T10:33:56;92080.16;;;16.97;79.63
39613;BME280;25303;48.896;13.342;2022-09-14T10:36:45;92083.28;;;17.06;79.70
39613;BME280;25303;48.896;13.342;2022-09-14T10:39:36;92080.97;;;17.16;79.61
39613;BME280;25303;48.896;13.342;2022-09-14T10:42:28;92079.13;;;17.23;79.34
39613;BME280;25303;48.896;13.342;2022-09-14T10:45:21;92088.44;;;17.31;79.38
39613;BME280;25303;48.896;13.342;2022-09-14T10:48:20;92069.56;;;17.36;79.68
39613;BME280;25303;48.896;13.342;2022-09-14T10:51:16;92072.69;;;17.44;79.86
39613;BME280;25303;48.896;13.342;2022-09-14T10:54:12;92060.59;;;17.50;79.07
39613;BME280;25303;48.896;13.342;2022-09-14T10:57:04;92054.97;;;17.53;78.95
39613;BME280;25303;48.896;13.342;2022-09-14T10:59:53;92052.72;;;17.57;79.07
39613;BME280;25303;48.896;13.342;2022-09-14T11:02:48;92046.28;;;17.59;79.14
39613;BME280;25303;48.896;13.342;2022-09-14T11:05:37;92038.59;;;17.65;79.29
39613;BME280;25303;48.896;13.342;2022-09-14T11:08:26;92039.56;;;17.70;79.99
39613;BME280;25303;48.896;13.342;2022-09-14T11:11:26;92035.63;;;17.80;80.04
39613;BME280;25303;48.896;13.342;2022-09-14T11:14:22;92027.28;;;17.89;80.05
39613;BME280;25303;48.896;13.342;2022-09-14T11:17:18;92025.97;;;17.99;80.25
39613;BME280;25303;48.896;13.342;2022-09-14T11:20:16;92032.09;;;18.04;79.67
39613;BME280;25303;48.896;13.342;2022-09-14T11:23:19;92029.84;;;18.08;79.81
39613;BME280;25303;48.896;13.342;2022-09-14T11:26:11;92037.22;;;18.11;80.25
39613;BME280;25303;48.896;13.342;2022-09-14T11:28:59;92040.19;;;18.15;79.64
39613;BME280;25303;48.896;13.342;2022-09-14T11:31:48;92030.34;;;18.17;79.62
39613;BME280;25303;48.896;13.342;2022-09-14T11:34:55;92024.69;;;18.20;80.00
39613;BME280;25303;48.896;13.342;2022-09-14T11:37:44;92024.44;;;18.21;79.88
39613;BME280;25303;48.896;13.342;2022-09-14T11:40:33;92017.22;;;18.24;80.42
39613;BME280;25303;48.896;13.342;2022-09-14T11:43:20;92012.78;;;18.24;80.26
39613;BME280;25303;48.896;13.342;2022-09-14T11:46:10;92010.41;;;18.22;79.91
39613;BME280;25303;48.896;13.342;2022-09-14T11:49:04;92015.19;;;18.26;79.74
39613;BME280;25303;48.896;13.342;2022-09-14T11:51:54;92009.72;;;18.27;79.91
39613;BME280;25303;48.896;13.342;2022-09-14T11:54:38;92008.28;;;18.31;79.71
39613;BME280;25303;48.896;13.342;2022-09-14T11:57:28;92001.94;;;18.39;80.40
39613;BME280;25303;48.896;13.342;2022-09-14T12:00:44;92009.41;;;18.47;80.09
39613;BME280;25303;48.896;13.342;2022-09-14T12:03:51;92007.50;;;18.55;79.73
39613;BME280;25303;48.896;13.342;2022-09-14T12:06:52;91999.91;;;18.53;79.38
39613;BME280;25303;48.896;13.342;2022-09-14T12:09:40;91997.63;;;18.57;79.62
39613;BME280;25303;48.896;13.342;2022-09-14T12:12:33;91993.00;;;18.59;79.38
39613;BME280;25303;48.896;13.342;2022-09-14T12:15:31;91998.78;;;18.61;79.77
39613;BME280;25303;48.896;13.342;2022-09-14T12:18:22;92004.19;;;18.59;79.60
39613;BME280;25303;48.896;13.342;2022-09-14T12:21:18;92001.94;;;18.63;79.31
39613;BME280;25303;48.896;13.342;2022-09-14T12:24:13;92009.31;;;18.66;79.18
39613;BME280;25303;48.896;13.342;2022-09-14T12:26:56;92011.47;;;18.69;79.38
39613;BME280;25303;48.896;13.342;2022-09-14T12:29:39;92010.22;;;18.72;79.50
39613;BME280;25303;48.896;13.342;2022-09-14T12:35:43;91996.16;;;18.85;80.01
39613;BME280;25303;48.896;13.342;2022-09-14T12:39:05;91995.94;;;19.10;80.42
39613;BME280;25303;48.896;13.342;2022-09-14T12:42:25;92000.84;;;19.47;80.34
39613;BME280;25303;48.896;13.342;2022-09-14T12:48:52;91999.50;;;20.02;78.08
39613;BME280;25303;48.896;13.342;2022-09-14T12:51:45;92002.38;;;20.18;78.07
39613;BME280;25303;48.896;13.342;2022-09-14T12:54:40;91995.41;;;20.41;77.97
39613;BME280;25303;48.896;13.342;2022-09-14T12:57:38;91989.44;;;20.62;77.50
39613;BME280;25303;48.896;13.342;2022-09-14T13:00:26;91990.72;;;20.77;76.55
39613;BME280;25303;48.896;13.342;2022-09-14T13:03:26;91997.72;;;20.88;75.75
39613;BME280;25303;48.896;13.342;2022-09-14T13:06:16;91995.25;;;20.82;74.47
39613;BME280;25303;48.896;13.342;2022-09-14T13:09:01;91997.16;;;20.86;74.44
39613;BME280;25303;48.896;13.342;2022-09-14T13:11:53;91996.13;;;20.87;74.28
39613;BME280;25303;48.896;13.342;2022-09-14T13:14:45;91995.31;;;20.87;74.35
39613;BME280;25303;48.896;13.342;2022-09-14T13:17:29;91992.09;;;20.79;74.04
39613;BME280;25303;48.896;13.342;2022-09-14T13:20:20;91988.59;;;20.74;73.79
39613;BME280;25303;48.896;13.342;2022-09-14T13:23:18;91985.63;;;20.70;74.20
39613;BME280;25303;48.896;13.342;2022-09-14T13:26:09;91988.03;;;20.72;74.23
39613;BME280;25303;48.896;13.342;2022-09-14T13:28:55;91986.75;;;20.74;74.74
39613;BME280;25303;48.896;13.342;2022-09-14T13:31:39;91993.69;;;20.81;74.74
39613;BME280;25303;48.896;13.342;2022-09-14T13:34:25;91992.22;;;20.90;74.87
39613;BME280;25303;48.896;13.342;2022-09-14T13:37:11;92003.63;;;21.01;74.54
39613;BME280;25303;48.896;13.342;2022-09-14T13:39:56;92018.41;;;21.12;74.19
39613;BME280;25303;48.896;13.342;2022-09-14T13:42:42;92013.19;;;21.12;72.96
39613;BME280;25303;48.896;13.342;2022-09-14T13:45:25;92008.97;;;21.11;72.15
39613;BME280;25303;48.896;13.342;2022-09-14T13:48:11;91997.25;;;21.14;72.88
39613;BME280;25303;48.896;13.342;2022-09-14T13:50:55;92003.25;;;21.14;72.56
39613;BME280;25303;48.896;13.342;2022-09-14T13:53:41;92001.69;;;21.13;73.27
39613;BME280;25303;48.896;13.342;2022-09-14T13:56:27;91997.00;;;21.15;73.28
39613;BME280;25303;48.896;13.342;2022-09-14T13:59:16;92001.75;;;21.18;73.27
39613;BME280;25303;48.896;13.342;2022-09-14T14:01:59;92001.50;;;21.20;72.40
39613;BME280;25303;48.896;13.342;2022-09-14T14:04:46;92005.09;;;21.14;72.25
39613;BME280;25303;48.896;13.342;2022-09-14T14:07:31;92014.00;;;21.13;72.07
39613;BME280;25303;48.896;13.342;2022-09-14T14:10:27;92024.16;;;21.09;72.22
39613;BME280;25303;48.896;13.342;2022-09-14T14:13:10;92028.59;;;21.08;72.25
39613;BME280;25303;48.896;13.342;2022-09-14T14:16:11;92025.09;;;21.03;72.40
39613;BME280;25303;48.896;13.342;2022-09-14T14:18:56;92014.91;;;21.01;72.42
39613;BME280;25303;48.896;13.342;2022-09-14T14:21:39;91984.19;;;20.97;72.53
39613;BME280;25303;48.896;13.342;2022-09-14T14:24:25;91975.78;;;20.94;71.77
39613;BME280;25303;48.896;13.342;2022-09-14T14:27:24;91963.91;;;20.87;71.67
39613;BME280;25303;48.896;13.342;2022-09-14T14:30:13;91991.09;;;20.86;72.08
39613;BME280;25303;48.896;13.342;2022-09-14T14:32:58;91997.53;;;20.95;72.26
39613;BME280;25303;48.896;13.342;2022-09-14T14:35:42;91990.84;;;21.04;72.05
39613;BME280;25303;48.896;13.342;2022-09-14T14:38:25;91988.28;;;21.09;72.00
39613;BME280;25303;48.896;13.342;2022-09-14T14:41:12;91982.31;;;21.14;71.57